Time;durP1;ratioP1;P1;durP2;ratioP2;P2;SDS_P1;SDS_P2;PMS_P1;PMS_P2;Temp;Humidity;BMP_temperature;BMP_pressure;BME280_temperature;BME280_humidity;BME280_pressure;Samples;Min_cycle;Max_cycle;Signal;HPM_P1;HPM_P2
2022/01/03 00:00:48;;;;;;;7.47;1.85;;;9.00;99.90;;;;;;4977149;28;20035;-66
2022/01/03 00:03:16;;;;;;;8.20;1.70;;;9.00;99.90;;;;;;4991569;28;20050;-66
2022/01/03 00:05:42;;;;;;;8.38;1.85;;;9.20;99.90;;;;;;4989139;28;20058;-66
2022/01/03 00:08:08;;;;;;;8.27;1.80;;;9.00;99.90;;;;;;4988941;28;20034;-66
2022/01/03 00:10:35;;;;;;;9.75;2.15;;;9.10;99.90;;;;;;4980311;28;20075;-66
2022/01/03 00:13:02;;;;;;;9.88;2.20;;;9.10;99.90;;;;;;4972176;28;20046;-66
2022/01/03 00:15:28;;;;;;;10.35;2.17;;;9.10;99.90;;;;;;4990402;28;20042;-66
2022/01/03 00:17:54;;;;;;;8.50;1.80;;;9.10;99.90;;;;;;4991941;28;20201;-66
2022/01/03 00:20:21;;;;;;;11.10;2.05;;;9.20;99.90;;;;;;4989969;28;20568;-67
2022/01/03 00:22:57;;;;;;;11.75;2.15;;;9.30;99.90;;;;;;4983295;28;20090;-66
2022/01/03 00:25:26;;;;;;;11.00;2.53;;;9.30;99.90;;;;;;4987362;28;20494;-66
2022/01/03 00:28:11;;;;;;;9.82;2.28;;;9.30;99.90;;;;;;4989898;28;20085;-66
2022/01/03 00:30:40;;;;;;;8.80;2.22;;;9.30;99.90;;;;;;4988629;28;20479;-66
2022/01/03 00:33:06;;;;;;;12.02;2.75;;;9.40;99.90;;;;;;4990113;28;20042;-66
2022/01/03 00:35:35;;;;;;;9.32;2.53;;;9.40;99.90;;;;;;4984617;28;20038;-66
2022/01/03 00:38:01;;;;;;;10.88;2.30;;;9.40;99.90;;;;;;4985453;28;20374;-66
2022/01/03 00:40:28;;;;;;;14.98;2.35;;;9.40;99.90;;;;;;4988133;28;20120;-66
2022/01/03 00:42:53;;;;;;;13.20;2.88;;;9.50;99.90;;;;;;4988941;28;20069;-66
2022/01/03 00:45:19;;;;;;;11.38;2.53;;;9.50;99.90;;;;;;4988404;28;20050;-66
2022/01/03 00:47:45;;;;;;;10.25;2.40;;;10.10;99.90;;;;;;4990660;28;20355;-66
2022/01/03 00:50:18;;;;;;;13.32;2.88;;;9.60;99.90;;;;;;4991112;28;20466;-66
2022/01/03 00:52:45;;;;;;;9.85;2.22;;;9.60;99.90;;;;;;4988914;28;20050;-65
2022/01/03 00:55:11;;;;;;;22.40;2.67;;;9.70;99.90;;;;;;4988079;28;20054;-65
2022/01/03 00:58:09;;;;;;;19.05;2.70;;;9.60;99.90;;;;;;4989227;28;20034;-65
2022/01/03 01:00:38;;;;;;;15.82;2.65;;;9.60;99.90;;;;;;4988131;28;20149;-66
2022/01/03 01:03:12;;;;;;;11.82;2.40;;;9.60;99.90;;;;;;4989848;28;20486;-66
2022/01/03 01:06:05;;;;;;;17.17;2.65;;;9.60;99.90;;;;;;4989804;28;20050;-66
2022/01/03 01:08:34;;;;;;;16.55;3.03;;;9.50;99.90;;;;;;4990132;28;20061;-66
2022/01/03 01:11:03;;;;;;;16.80;3.75;;;9.50;99.90;;;;;;4988665;28;20426;-66
2022/01/03 01:13:28;;;;;;;20.55;3.47;;;9.50;99.90;;;;;;4988701;28;20053;-65
2022/01/03 01:15:54;;;;;;;19.67;3.72;;;9.50;99.90;;;;;;4986473;28;20455;-66
2022/01/03 01:18:23;;;;;;;19.20;3.90;;;9.50;99.90;;;;;;4990344;28;20038;-65
2022/01/03 01:20:49;;;;;;;15.07;2.90;;;9.50;99.90;;;;;;4992011;28;20065;-65
2022/01/03 01:23:15;;;;;;;21.05;3.67;;;9.60;99.90;;;;;;4991715;28;20061;-66
2022/01/03 01:28:10;;;;;;;17.83;3.40;;;9.70;99.90;;;;;;4988105;28;20097;-66
2022/01/03 01:30:36;;;;;;;19.52;2.90;;;9.60;99.90;;;;;;4988083;28;20473;-65
2022/01/03 01:33:16;;;;;;;16.85;3.75;;;9.60;99.90;;;;;;4988995;28;20034;-66
2022/01/03 01:35:53;;;;;;;19.90;3.95;;;9.50;99.90;;;;;;4988233;28;20061;-65
2022/01/03 01:38:21;;;;;;;20.45;3.67;;;10.50;99.90;;;;;;4986934;28;20060;-66
2022/01/03 01:40:53;;;;;;;18.20;2.88;;;9.70;99.90;;;;;;4990198;28;20042;-66
2022/01/03 01:43:25;;;;;;;23.02;4.13;;;9.60;99.90;;;;;;4988486;28;20046;-66
2022/01/03 01:45:52;;;;;;;23.60;4.13;;;9.70;99.90;;;;;;4989574;28;20050;-65
2022/01/03 01:48:23;;;;;;;22.42;3.20;;;9.70;99.90;;;;;;4973880;28;20483;-66
2022/01/03 01:50:50;;;;;;;17.60;3.63;;;9.60;99.90;;;;;;4988906;28;20049;-66
2022/01/03 01:53:25;;;;;;;22.70;4.13;;;9.80;99.90;;;;;;4985675;28;20046;-68
2022/01/03 01:55:53;;;;;;;11.10;2.65;;;9.80;99.90;;;;;;4968708;28;20131;-65
2022/01/03 01:58:52;;;;;;;19.65;3.88;;;9.70;99.90;;;;;;4971007;28;20046;-66
2022/01/03 02:01:20;;;;;;;21.23;3.95;;;9.70;99.90;;;;;;4983339;28;20057;-66
2022/01/03 02:03:47;;;;;;;19.98;3.45;;;9.80;99.90;;;;;;4988143;28;20521;-65
2022/01/03 02:06:50;;;;;;;19.65;3.20;;;9.80;99.90;;;;;;4988522;28;20486;-66
2022/01/03 02:09:25;;;;;;;23.35;3.60;;;9.80;99.90;;;;;;4987837;28;20480;-66
2022/01/03 02:11:51;;;;;;;30.08;4.03;;;9.70;99.90;;;;;;4988345;28;20039;-66
2022/01/03 02:14:19;;;;;;;20.88;3.78;;;9.80;99.90;;;;;;4985982;28;20070;-65
2022/01/03 02:16:44;;;;;;;17.98;3.65;;;9.80;99.90;;;;;;4987567;28;20486;-66
2022/01/03 02:19:11;;;;;;;17.10;3.55;;;9.80;99.90;;;;;;4989005;28;20049;-66
2022/01/03 02:21:37;;;;;;;19.02;3.28;;;9.80;99.90;;;;;;4987186;28;20058;-66
2022/01/03 02:24:04;;;;;;;20.08;3.60;;;11.10;99.90;;;;;;4989068;28;20391;-65
2022/01/03 02:26:30;;;;;;;22.85;3.85;;;9.90;99.90;;;;;;4992208;28;20049;-66
2022/01/03 02:28:56;;;;;;;20.92;3.42;;;9.80;99.90;;;;;;4990265;28;20053;-65
2022/01/03 02:31:22;;;;;;;19.88;3.28;;;9.80;99.90;;;;;;4991812;28;20362;-66
2022/01/03 02:33:48;;;;;;;26.58;4.68;;;9.90;99.90;;;;;;4992298;28;20046;-66
2022/01/03 02:36:15;;;;;;;17.58;3.55;;;10.00;99.90;;;;;;4991904;28;20125;-65
2022/01/03 02:38:42;;;;;;;21.25;3.83;;;9.90;99.90;;;;;;4991904;28;20046;-66
2022/01/03 02:41:07;;;;;;;18.85;3.80;;;9.90;99.90;;;;;;4992153;28;20073;-66
2022/01/03 02:43:33;;;;;;;20.05;4.25;;;9.90;99.90;;;;;;4990437;28;20046;-66
2022/01/03 02:45:59;;;;;;;28.25;4.05;;;9.90;99.90;;;;;;4991052;28;20053;-65
2022/01/03 02:48:26;;;;;;;21.77;3.70;;;9.90;99.90;;;;;;4992943;28;20042;-66
2022/01/03 02:50:53;;;;;;;21.90;4.13;;;9.90;99.90;;;;;;4992328;28;20096;-65
2022/01/03 02:53:20;;;;;;;21.20;3.55;;;9.90;99.90;;;;;;4992046;28;20125;-66
2022/01/03 02:55:46;;;;;;;21.27;4.05;;;9.80;99.90;;;;;;4990006;28;20050;-65
2022/01/03 02:58:12;;;;;;;20.73;3.92;;;9.90;99.90;;;;;;4993216;28;20050;-66
2022/01/03 03:00:45;;;;;;;21.42;3.72;;;9.80;99.90;;;;;;4989009;28;20046;-65
2022/01/03 03:03:19;;;;;;;18.90;3.92;;;9.90;99.90;;;;;;4991626;28;20046;-65
2022/01/03 03:05:46;;;;;;;19.83;3.65;;;9.90;99.90;;;;;;4990345;28;20053;-66
2022/01/03 03:08:13;;;;;;;17.15;3.50;;;10.00;99.90;;;;;;4990613;28;20113;-66
2022/01/03 03:10:39;;;;;;;19.00;3.92;;;9.80;99.90;;;;;;4988760;28;20101;-65
2022/01/03 03:13:05;;;;;;;23.45;4.55;;;9.80;99.90;;;;;;4992210;28;20487;-66
2022/01/03 03:15:32;;;;;;;19.67;4.15;;;9.70;99.90;;;;;;4973296;28;20406;-65
2022/01/03 03:17:58;;;;;;;26.85;4.75;;;9.70;99.90;;;;;;4991402;28;20077;-66
2022/01/03 03:20:27;;;;;;;19.33;3.78;;;9.70;99.90;;;;;;4989621;28;20408;-66
2022/01/03 03:22:53;;;;;;;26.08;3.65;;;9.70;99.90;;;;;;4989843;28;20157;-65
2022/01/03 03:25:28;;;;;;;25.13;3.95;;;9.60;99.90;;;;;;4989100;28;20042;-66
2022/01/03 03:28:06;;;;;;;21.88;3.58;;;9.70;99.90;;;;;;4974907;28;20447;-65
2022/01/03 03:30:44;;;;;;;22.38;3.95;;;9.60;99.90;;;;;;4988473;28;20476;-65
2022/01/03 03:33:16;;;;;;;25.02;3.75;;;9.60;99.90;;;;;;4990966;28;20501;-66
2022/01/03 03:35:43;;;;;;;22.55;4.10;;;9.50;99.90;;;;;;4990252;28;20117;-65
2022/01/03 03:38:08;;;;;;;23.88;4.15;;;9.50;99.90;;;;;;4990156;28;20565;-65
2022/01/03 03:40:34;;;;;;;20.30;3.88;;;9.40;99.90;;;;;;4990401;28;20133;-66
2022/01/03 03:43:00;;;;;;;20.45;3.88;;;9.40;99.90;;;;;;4991755;28;20387;-65
2022/01/03 03:45:26;;;;;;;22.25;4.05;;;9.40;99.90;;;;;;4989521;28;20129;-65
2022/01/03 03:47:52;;;;;;;21.83;3.60;;;9.40;99.90;;;;;;4991470;28;20046;-66
2022/01/03 03:50:18;;;;;;;33.30;5.30;;;9.40;99.90;;;;;;4991756;28;20494;-66
2022/01/03 03:52:45;;;;;;;23.40;4.20;;;9.30;99.90;;;;;;4988512;28;20423;-65
2022/01/03 03:55:11;;;;;;;22.80;3.80;;;9.30;99.90;;;;;;4975474;28;20090;-65
2022/01/03 03:57:37;;;;;;;23.30;4.05;;;9.30;99.90;;;;;;4972087;28;20463;-67
2022/01/03 04:00:12;;;;;;;25.38;3.80;;;9.40;99.90;;;;;;4984721;28;20092;-66
2022/01/03 04:02:38;;;;;;;24.05;4.28;;;9.40;99.90;;;;;;4991226;28;20390;-66
2022/01/03 04:05:04;;;;;;;28.33;4.55;;;9.30;99.90;;;;;;4991033;28;20121;-65
2022/01/03 04:07:30;;;;;;;17.88;3.20;;;9.30;99.90;;;;;;4989224;28;20042;-66
2022/01/03 04:09:55;;;;;;;20.83;4.13;;;9.30;99.90;;;;;;4989245;28;20511;-66
2022/01/03 04:12:21;;;;;;;30.92;4.30;;;9.30;99.90;;;;;;4990700;28;20042;-65
2022/01/03 04:14:47;;;;;;;24.60;3.42;;;9.30;99.90;;;;;;4989403;28;20513;-65
2022/01/03 04:17:12;;;;;;;22.45;4.43;;;9.30;99.90;;;;;;4973027;28;20042;-65
2022/01/03 04:19:38;;;;;;;21.60;4.43;;;9.30;99.90;;;;;;4989804;28;20121;-66
2022/01/03 04:22:04;;;;;;;25.23;3.97;;;9.30;99.90;;;;;;4990587;28;20058;-65
2022/01/03 04:24:30;;;;;;;24.00;4.45;;;9.70;99.90;;;;;;4982893;28;20057;-65
2022/01/03 04:26:56;;;;;;;23.85;4.03;;;9.30;99.90;;;;;;4991232;28;20046;-65
2022/01/03 04:29:21;;;;;;;28.02;4.57;;;9.40;99.90;;;;;;4988285;28;20061;-66
2022/01/03 04:31:47;;;;;;;26.25;4.60;;;9.30;99.90;;;;;;4990878;28;20045;-65
2022/01/03 04:34:13;;;;;;;25.80;4.32;;;9.40;99.90;;;;;;4989586;28;20058;-66
2022/01/03 04:36:40;;;;;;;21.23;3.97;;;9.40;99.90;;;;;;4990126;28;20391;-66
2022/01/03 04:39:06;;;;;;;22.10;3.78;;;9.40;99.90;;;;;;4988009;28;20053;-65
2022/01/03 04:41:33;;;;;;;29.15;5.30;;;9.40;99.90;;;;;;4989265;28;20612;-66
2022/01/03 04:44:00;;;;;;;22.33;3.88;;;9.30;99.90;;;;;;4988803;28;20053;-66
2022/01/03 04:46:26;;;;;;;28.33;3.97;;;9.40;99.90;;;;;;4987917;28;20057;-66
2022/01/03 04:48:52;;;;;;;23.15;4.30;;;9.40;99.90;;;;;;4989302;28;20057;-65
2022/01/03 04:51:17;;;;;;;25.67;3.75;;;9.40;99.90;;;;;;4989731;28;20054;-66
2022/01/03 04:53:43;;;;;;;19.45;4.10;;;9.40;99.90;;;;;;4989416;28;20046;-65
2022/01/03 04:56:11;;;;;;;24.58;4.43;;;9.40;99.90;;;;;;4983274;28;20093;-65
2022/01/03 04:58:38;;;;;;;24.83;4.65;;;9.50;99.90;;;;;;4980160;28;20051;-65
2022/01/03 05:01:04;;;;;;;25.13;5.18;;;9.50;99.90;;;;;;4989021;28;20533;-65
2022/01/03 05:03:31;;;;;;;23.58;4.57;;;9.50;99.90;;;;;;4989187;28;20069;-65
2022/01/03 05:05:57;;;;;;;26.98;3.80;;;9.50;99.90;;;;;;4989984;28;20096;-65
2022/01/03 05:08:23;;;;;;;22.17;4.03;;;9.50;99.90;;;;;;4987974;28;20442;-66
2022/01/03 05:10:49;;;;;;;25.10;4.30;;;9.50;99.90;;;;;;4989427;28;20038;-65
2022/01/03 05:13:14;;;;;;;25.17;4.63;;;9.50;99.90;;;;;;4990382;28;20046;-66
2022/01/03 05:15:40;;;;;;;22.85;4.57;;;9.50;99.90;;;;;;4988609;28;20108;-65
2022/01/03 05:18:05;;;;;;;26.67;4.68;;;9.60;99.90;;;;;;4987824;28;20085;-66
2022/01/03 05:20:31;;;;;;;26.92;4.38;;;9.50;99.90;;;;;;4987481;28;20077;-65
2022/01/03 05:22:56;;;;;;;26.85;4.70;;;9.50;99.90;;;;;;4989297;28;20054;-65
2022/01/03 05:25:22;;;;;;;30.27;4.90;;;9.50;99.90;;;;;;4987684;28;20050;-65
2022/01/03 05:27:48;;;;;;;26.58;4.10;;;9.40;99.90;;;;;;4989339;28;20046;-66
2022/01/03 05:30:14;;;;;;;25.48;4.45;;;9.40;99.90;;;;;;4970520;28;20058;-65
2022/01/03 05:32:39;;;;;;;39.13;6.22;;;9.50;99.90;;;;;;4988359;28;20035;-65
2022/01/03 05:35:06;;;;;;;32.53;5.20;;;9.50;99.90;;;;;;4991047;28;20130;-66
2022/01/03 05:37:31;;;;;;;23.80;4.38;;;9.50;99.90;;;;;;4988282;28;20050;-65
2022/01/03 05:39:57;;;;;;;28.05;4.97;;;9.50;99.90;;;;;;4988449;28;20395;-65
2022/01/03 05:42:22;;;;;;;22.02;4.13;;;9.50;99.90;;;;;;4987765;28;20042;-65
2022/01/03 05:44:48;;;;;;;30.10;5.38;;;9.40;99.90;;;;;;4988638;28;20546;-65
2022/01/03 05:47:14;;;;;;;21.48;3.85;;;9.40;99.90;;;;;;4991668;28;20471;-68
2022/01/03 05:49:40;;;;;;;26.88;5.00;;;9.40;99.90;;;;;;4991389;28;20184;-66
2022/01/03 05:52:05;;;;;;;25.92;4.10;;;9.40;99.90;;;;;;4988866;28;20487;-66
2022/01/03 05:54:31;;;;;;;27.08;4.57;;;9.30;99.90;;;;;;4987340;28;20169;-66
2022/01/03 05:56:56;;;;;;;23.58;4.20;;;9.30;99.90;;;;;;4989811;28;20053;-66
2022/01/03 05:59:22;;;;;;;26.52;4.05;;;9.40;99.90;;;;;;4986164;28;20042;-66
2022/01/03 06:01:48;;;;;;;35.95;5.40;;;9.40;99.90;;;;;;4988380;28;20046;-66
2022/01/03 06:04:34;;;;;;;24.35;4.45;;;9.40;99.90;;;;;;4988227;28;20041;-66
2022/01/03 06:07:05;;;;;;;26.85;4.55;;;9.40;99.90;;;;;;4988712;28;20050;-66
2022/01/03 06:09:31;;;;;;;31.95;4.65;;;9.40;99.90;;;;;;4987255;28;20038;-66
2022/01/03 06:11:58;;;;;;;29.95;4.68;;;9.30;99.90;;;;;;4989742;28;20053;-66
2022/01/03 06:14:25;;;;;;;34.10;4.90;;;9.30;99.90;;;;;;4986189;28;20085;-66
2022/01/03 06:16:51;;;;;;;30.95;4.40;;;9.40;99.90;;;;;;4990146;28;20042;-66
2022/01/03 06:19:18;;;;;;;31.98;5.35;;;9.40;99.90;;;;;;4987307;28;20538;-66
2022/01/03 06:21:44;;;;;;;20.55;3.90;;;9.40;99.90;;;;;;4988108;28;20061;-67
2022/01/03 06:24:12;;;;;;;30.50;4.80;;;9.40;99.90;;;;;;4986989;28;20086;-66
2022/01/03 06:26:41;;;;;;;31.88;5.35;;;9.50;99.90;;;;;;4973708;28;20051;-66
2022/01/03 06:29:07;;;;;;;26.95;4.32;;;9.30;99.90;;;;;;4971003;28;20046;-66
2022/01/03 06:31:33;;;;;;;36.58;4.93;;;9.30;99.90;;;;;;4987700;28;20038;-66
2022/01/03 06:33:59;;;;;;;28.40;4.20;;;9.30;99.90;;;;;;4987865;28;20321;-66
2022/01/03 06:36:25;;;;;;;28.15;5.05;;;9.40;99.90;;;;;;4986884;28;20050;-66
2022/01/03 06:38:51;;;;;;;27.77;4.63;;;9.40;99.90;;;;;;4988748;28;20461;-66
2022/01/03 06:41:16;;;;;;;31.13;4.95;;;9.30;99.90;;;;;;4985814;28;20134;-65
2022/01/03 06:43:42;;;;;;;30.38;4.13;;;9.30;99.90;;;;;;4985552;28;20511;-66
2022/01/03 06:46:08;;;;;;;32.25;5.15;;;9.40;99.90;;;;;;4987504;28;20125;-65
2022/01/03 06:48:33;;;;;;;32.75;5.18;;;9.30;99.90;;;;;;4989876;28;20049;-66
2022/01/03 06:50:59;;;;;;;33.47;5.25;;;9.30;99.90;;;;;;4990480;28;20363;-65
2022/01/03 06:53:25;;;;;;;25.35;4.90;;;9.20;99.90;;;;;;4987550;28;20046;-66
2022/01/03 06:55:50;;;;;;;25.20;4.32;;;9.20;99.90;;;;;;4986221;28;20053;-66
2022/01/03 06:58:16;;;;;;;29.67;5.13;;;9.20;99.90;;;;;;4988295;28;20494;-65
2022/01/03 07:00:42;;;;;;;31.75;5.53;;;9.60;99.90;;;;;;4987115;28;20085;-66
2022/01/03 07:03:07;;;;;;;25.90;4.53;;;9.20;99.90;;;;;;4970583;28;20050;-66
2022/01/03 07:05:33;;;;;;;29.90;5.38;;;9.10;99.90;;;;;;4987645;28;20042;-65
2022/01/03 07:07:59;;;;;;;29.55;4.72;;;9.10;99.90;;;;;;4987713;28;20069;-65
2022/01/03 07:10:25;;;;;;;24.10;5.22;;;9.10;99.90;;;;;;4986443;28;20065;-66
2022/01/03 07:12:52;;;;;;;29.05;5.28;;;9.00;99.90;;;;;;4991555;28;20398;-66
2022/01/03 07:20:49;;;;;;;25.60;3.78;;;9.20;99.90;;;;;;4990116;28;20054;-66
2022/01/03 07:23:16;;;;;;;22.50;4.15;;;9.30;99.90;;;;;;4990686;28;20045;-65
2022/01/03 07:25:41;;;;;;;22.52;5.07;;;9.40;99.90;;;;;;4990945;28;20042;-65
2022/01/03 07:28:07;;;;;;;29.60;4.72;;;9.30;99.90;;;;;;4991866;28;20526;-65
2022/01/03 07:30:33;;;;;;;27.85;4.82;;;9.30;99.90;;;;;;4989102;28;20046;-66
2022/01/03 07:32:59;;;;;;;29.23;5.07;;;9.30;99.90;;;;;;4991892;28;20069;-65
2022/01/03 07:35:25;;;;;;;31.88;5.25;;;9.40;99.90;;;;;;4993237;28;20133;-65
2022/01/03 07:37:53;;;;;;;27.85;5.20;;;9.40;99.90;;;;;;4992820;28;20043;-66
2022/01/03 07:40:19;;;;;;;29.77;5.18;;;9.30;99.90;;;;;;4974072;28;20077;-67
2022/01/03 07:42:45;;;;;;;31.60;5.30;;;9.30;99.90;;;;;;4991913;28;20038;-65
2022/01/03 07:45:11;;;;;;;35.65;5.07;;;9.40;99.90;;;;;;4989957;28;20487;-65
2022/01/03 07:47:37;;;;;;;29.02;4.75;;;9.30;99.90;;;;;;4992448;28;20400;-65
2022/01/03 07:50:04;;;;;;;41.28;6.38;;;9.30;99.90;;;;;;4991286;28;20052;-66
2022/01/03 07:52:30;;;;;;;33.03;4.90;;;9.30;99.90;;;;;;4988974;28;20104;-66
2022/01/03 07:54:55;;;;;;;32.92;6.15;;;9.30;99.90;;;;;;4989253;28;20046;-66
2022/01/03 07:57:21;;;;;;;35.15;5.60;;;9.50;99.90;;;;;;4992810;28;20125;-66
2022/01/03 07:59:47;;;;;;;30.85;4.80;;;9.30;99.90;;;;;;4990186;28;20104;-66
2022/01/03 08:02:13;;;;;;;34.92;6.43;;;9.60;99.90;;;;;;4991524;28;20475;-66
2022/01/03 08:04:39;;;;;;;27.33;5.22;;;9.40;99.90;;;;;;4990090;28;20070;-66
2022/01/03 08:07:05;;;;;;;20.73;4.55;;;9.40;99.90;;;;;;4991096;28;20042;-66
2022/01/03 08:09:30;;;;;;;27.58;5.13;;;9.50;99.90;;;;;;4988380;28;20042;-66
2022/01/03 08:11:56;;;;;;;28.33;5.28;;;9.50;99.90;;;;;;4990872;28;20118;-66
2022/01/03 08:14:22;;;;;;;36.35;5.88;;;9.60;99.90;;;;;;4989247;28;20121;-66
2022/01/03 08:16:48;;;;;;;23.65;4.20;;;9.50;99.90;;;;;;4970078;28;20047;-66
2022/01/03 08:19:13;;;;;;;32.65;6.07;;;9.60;99.90;;;;;;4968269;28;20090;-66
2022/01/03 08:21:39;;;;;;;32.63;5.05;;;9.50;99.90;;;;;;4978233;28;20061;-66
2022/01/03 08:24:05;;;;;;;32.50;5.55;;;9.60;99.90;;;;;;4989722;28;20046;-66
2022/01/03 08:26:33;;;;;;;29.98;4.97;;;9.60;99.90;;;;;;4990539;28;20053;-66
2022/01/03 08:28:59;;;;;;;24.15;5.55;;;9.50;99.90;;;;;;4992655;28;20046;-67
2022/01/03 08:31:25;;;;;;;33.40;5.00;;;9.70;99.90;;;;;;4988804;28;20053;-66
2022/01/03 08:33:53;;;;;;;24.65;4.38;;;10.90;99.90;;;;;;4973451;28;20046;-66
2022/01/03 08:36:19;;;;;;;22.98;4.60;;;9.70;99.90;;;;;;4990311;28;20105;-66
2022/01/03 08:38:45;;;;;;;29.00;4.15;;;9.80;99.90;;;;;;4989763;28;20497;-66
2022/01/03 08:41:11;;;;;;;30.35;5.35;;;9.80;99.90;;;;;;4988162;28;20134;-66
2022/01/03 08:43:36;;;;;;;28.83;5.15;;;9.80;99.90;;;;;;4990625;28;20066;-66
2022/01/03 08:46:02;;;;;;;26.27;4.63;;;9.80;99.90;;;;;;4987009;28;20050;-66
2022/01/03 08:48:28;;;;;;;25.90;5.05;;;9.90;99.90;;;;;;4989776;28;20495;-66
2022/01/03 08:50:54;;;;;;;28.02;5.07;;;10.80;99.90;;;;;;4989575;28;20406;-66
2022/01/03 08:53:25;;;;;;;26.38;4.75;;;10.20;99.90;;;;;;4987731;28;20038;-65
2022/01/03 08:55:51;;;;;;;32.75;5.15;;;10.00;99.90;;;;;;4989077;28;20085;-66
2022/01/03 08:58:18;;;;;;;25.08;4.43;;;10.00;99.90;;;;;;4987902;28;20100;-66
2022/01/03 09:00:44;;;;;;;24.50;4.10;;;10.00;99.90;;;;;;4988665;28;20050;-66
2022/01/03 09:03:11;;;;;;;24.77;4.60;;;10.10;99.90;;;;;;4988571;28;20446;-66
2022/01/03 09:05:36;;;;;;;23.58;4.80;;;10.00;99.90;;;;;;4989520;28;20046;-66
2022/01/03 09:08:02;;;;;;;28.13;5.22;;;10.00;99.90;;;;;;4989105;28;20046;-66
2022/01/03 09:10:28;;;;;;;33.10;5.78;;;10.00;99.90;;;;;;4987852;28;20122;-66
2022/01/03 09:12:54;;;;;;;23.33;4.15;;;10.10;99.90;;;;;;4990316;28;20188;-65
2022/01/03 09:15:19;;;;;;;23.35;4.38;;;10.00;99.90;;;;;;4987430;28;20129;-65
2022/01/03 09:17:45;;;;;;;31.73;5.15;;;10.00;99.90;;;;;;4989606;28;20120;-66
2022/01/03 09:20:11;;;;;;;25.67;3.78;;;10.10;99.90;;;;;;4989127;28;20050;-66
2022/01/03 09:22:42;;;;;;;31.48;5.18;;;10.10;99.90;;;;;;4982498;28;20057;-66
2022/01/03 09:30:31;;;;;;;28.30;5.68;;;10.40;99.90;;;;;;4968926;28;20062;-66
2022/01/03 09:32:57;;;;;;;26.08;4.20;;;10.40;99.90;;;;;;4968881;28;20046;-65
2022/01/03 09:35:23;;;;;;;27.08;5.97;;;10.50;99.90;;;;;;4970728;28;20109;-65
2022/01/03 09:37:49;;;;;;;26.42;5.35;;;10.50;99.90;;;;;;4988364;28;20479;-66
2022/01/03 09:40:15;;;;;;;32.58;5.10;;;10.50;99.90;;;;;;4987363;28;20398;-66
2022/01/03 09:42:45;;;;;;;34.78;5.75;;;10.50;99.90;;;;;;4987931;28;20038;-65
2022/01/03 09:45:11;;;;;;;28.63;4.35;;;10.60;99.90;;;;;;4987461;28;20042;-65
2022/01/03 09:47:43;;;;;;;27.15;4.88;;;10.60;99.90;;;;;;4987506;28;20455;-65
2022/01/03 09:50:10;;;;;;;27.08;4.55;;;10.70;99.90;;;;;;4989322;28;20422;-65
2022/01/03 09:52:37;;;;;;;31.45;5.65;;;10.80;99.90;;;;;;4990446;28;20166;-65
2022/01/03 09:55:04;;;;;;;23.10;4.35;;;10.90;99.90;;;;;;4987399;28;20049;-65
2022/01/03 09:57:30;;;;;;;25.67;4.35;;;11.00;99.90;;;;;;4987926;28;20085;-65
2022/01/03 09:59:59;;;;;;;37.45;5.20;;;11.00;99.90;;;;;;4987729;28;20406;-65
2022/01/03 10:02:25;;;;;;;26.42;4.40;;;11.00;99.90;;;;;;4989733;28;20428;-65
2022/01/03 10:04:51;;;;;;;27.05;4.28;;;11.10;99.90;;;;;;4985442;28;20438;-65
2022/01/03 10:07:17;;;;;;;23.27;3.90;;;11.00;99.90;;;;;;4969559;28;20046;-66
2022/01/03 10:09:44;;;;;;;21.80;4.53;;;11.10;99.90;;;;;;4987043;28;20058;-66
2022/01/03 10:12:12;;;;;;;25.48;4.20;;;11.10;99.90;;;;;;4982969;28;20082;-65
2022/01/03 10:14:38;;;;;;;24.63;4.40;;;11.30;99.90;;;;;;4970741;28;20054;-65
2022/01/03 10:17:04;;;;;;;27.90;4.85;;;11.30;99.90;;;;;;4971662;28;20561;-65
2022/01/03 10:19:30;;;;;;;24.52;4.88;;;11.50;99.90;;;;;;4970640;28;20089;-66
2022/01/03 10:21:56;;;;;;;21.80;4.20;;;11.60;99.90;;;;;;4968558;28;20090;-65
2022/01/03 10:24:36;;;;;;;29.65;5.10;;;11.80;99.90;;;;;;4965955;28;20197;-68
2022/01/03 10:27:02;;;;;;;30.98;5.55;;;11.80;99.90;;;;;;4968083;28;20061;-66
2022/01/03 10:29:31;;;;;;;21.60;4.25;;;11.80;99.90;;;;;;4969593;28;20616;-65
2022/01/03 10:31:59;;;;;;;27.35;4.63;;;11.80;99.90;;;;;;4968934;28;20043;-65
2022/01/03 10:34:25;;;;;;;22.55;5.07;;;11.80;99.90;;;;;;4967664;28;20039;-65
2022/01/03 10:36:54;;;;;;;22.55;4.07;;;11.90;99.90;;;;;;4980060;28;20430;-65
2022/01/03 10:39:22;;;;;;;26.27;5.00;;;12.10;99.90;;;;;;4986063;28;20038;-70
2022/01/03 10:42:14;;;;;;;20.63;4.13;;;12.40;99.90;;;;;;4983777;28;20042;-70
2022/01/03 10:44:41;;;;;;;30.85;4.55;;;12.60;99.90;;;;;;4979593;28;20074;-70
2022/01/03 10:47:15;;;;;;;26.88;4.38;;;12.70;99.90;;;;;;4987730;28;20097;-69
2022/01/03 10:49:43;;;;;;;22.10;4.38;;;12.70;99.90;;;;;;4989024;28;20089;-69
2022/01/03 10:52:22;;;;;;;20.35;4.47;;;12.60;99.90;;;;;;4987919;28;20046;-70
2022/01/03 10:55:16;;;;;;;26.15;4.78;;;12.50;99.90;;;;;;4987940;28;20050;-69
2022/01/03 10:57:59;;;;;;;26.65;4.15;;;12.50;99.90;;;;;;4988831;28;20046;-70
2022/01/03 11:00:28;;;;;;;18.02;4.00;;;12.50;99.90;;;;;;4986044;28;20054;-68
2022/01/03 11:03:42;;;;;;;25.00;5.00;;;12.30;99.90;;;;;;4987348;28;20061;-69
2022/01/03 11:06:46;;;;;;;20.98;4.20;;;12.10;99.90;;;;;;4986144;28;20054;-69
2022/01/03 11:11:58;;;;;;;24.55;4.65;;;11.80;99.90;;;;;;4989118;28;20454;-69
2022/01/03 11:14:41;;;;;;;20.95;4.55;;;11.70;99.90;;;;;;4987371;28;20058;-69
2022/01/03 11:17:23;;;;;;;25.10;4.85;;;11.50;99.90;;;;;;4991599;28;20046;-69
2022/01/03 11:19:49;;;;;;;27.15;4.72;;;11.50;99.90;;;;;;4988833;28;20092;-69
2022/01/03 11:22:38;;;;;;;27.38;4.88;;;11.50;99.90;;;;;;4985320;28;20073;-70
2022/01/03 11:25:05;;;;;;;24.30;3.88;;;11.30;99.90;;;;;;4968295;28;20055;-69
2022/01/03 11:27:31;;;;;;;30.95;4.50;;;11.30;99.90;;;;;;4967833;28;20479;-69
2022/01/03 11:29:58;;;;;;;26.67;5.10;;;11.30;99.90;;;;;;4980868;28;20058;-68
2022/01/03 11:32:24;;;;;;;23.00;5.10;;;11.30;99.90;;;;;;4987018;28;20554;-69
2022/01/03 11:34:51;;;;;;;22.85;3.92;;;12.50;99.90;;;;;;4986086;28;20129;-69
2022/01/03 11:37:16;;;;;;;26.25;4.65;;;12.60;99.90;;;;;;4987090;28;20410;-70
2022/01/03 11:39:46;;;;;;;24.50;3.65;;;11.90;99.90;;;;;;4987107;28;20042;-70
2022/01/03 11:42:13;;;;;;;20.23;4.47;;;12.20;99.90;;;;;;4987841;28;20050;-70
2022/01/03 11:44:40;;;;;;;27.40;5.10;;;12.60;99.90;;;;;;4969525;28;20084;-70
2022/01/03 11:47:08;;;;;;;24.33;4.03;;;13.20;99.90;;;;;;4990450;28;20046;-68
2022/01/03 11:49:36;;;;;;;22.50;4.45;;;13.80;99.90;;;;;;4989671;28;20046;-66
2022/01/03 11:52:09;;;;;;;20.77;4.20;;;14.80;99.90;;;;;;5006290;28;20054;-67
2022/01/03 11:54:36;;;;;;;24.90;4.65;;;14.30;99.90;;;;;;4988707;28;20046;-67
2022/01/03 11:57:12;;;;;;;23.25;3.90;;;14.10;99.90;;;;;;4989697;28;20046;-67
2022/01/03 12:05:10;;;;;;;23.90;5.03;;;13.50;99.90;;;;;;4990822;28;20055;-67
2022/01/03 12:07:54;;;;;;;20.35;4.32;;;13.40;99.90;;;;;;4973011;28;20552;-67
2022/01/03 12:10:20;;;;;;;21.17;4.13;;;13.20;99.90;;;;;;4988178;28;20379;-66
2022/01/03 12:12:45;;;;;;;21.55;4.00;;;12.90;99.90;;;;;;4993937;28;20101;-66
2022/01/03 12:15:39;;;;;;;16.38;3.50;;;12.90;99.90;;;;;;4970710;28;20558;-66
2022/01/03 12:18:25;;;;;;;26.13;4.30;;;12.50;99.90;;;;;;4969427;28;20078;-67
2022/01/03 12:20:50;;;;;;;29.73;4.80;;;12.50;99.90;;;;;;4985244;28;20090;-67
2022/01/03 12:23:36;;;;;;;28.40;4.55;;;12.50;99.90;;;;;;4970904;28;20086;-67
2022/01/03 12:26:19;;;;;;;24.38;3.70;;;12.40;99.90;;;;;;4970724;28;20399;-67
2022/01/03 12:29:03;;;;;;;29.42;5.03;;;12.10;99.90;;;;;;4970999;28;20223;-66
2022/01/03 12:32:08;;;;;;;24.08;3.72;;;12.00;99.90;;;;;;4968701;28;20046;-65
2022/01/03 12:34:34;;;;;;;28.25;4.40;;;11.90;99.90;;;;;;4971241;28;20046;-68
2022/01/03 12:37:20;;;;;;;23.40;4.10;;;11.90;99.90;;;;;;4971422;28;20133;-66
2022/01/03 12:40:05;;;;;;;22.95;4.22;;;12.10;99.90;;;;;;4969398;28;20101;-66
2022/01/03 12:42:48;;;;;;;20.50;4.13;;;12.20;99.90;;;;;;4968945;28;20092;-68
2022/01/03 12:45:16;;;;;;;22.70;3.90;;;12.40;99.90;;;;;;4968698;28;20053;-66
2022/01/03 12:47:42;;;;;;;18.00;3.72;;;12.60;99.90;;;;;;4970987;28;20050;-66
2022/01/03 12:50:28;;;;;;;24.52;5.50;;;12.60;99.90;;;;;;4970303;28;20065;-66
2022/01/03 12:52:54;;;;;;;22.15;3.92;;;12.60;99.90;;;;;;4969855;28;20430;-65
2022/01/03 12:55:38;;;;;;;19.50;4.03;;;12.50;99.90;;;;;;4969528;28;20055;-66
2022/01/03 12:58:16;;;;;;;22.13;4.20;;;12.50;99.90;;;;;;4985549;28;20054;-66
2022/01/03 13:00:47;;;;;;;20.33;4.10;;;12.30;99.90;;;;;;4969352;28;20047;-67
2022/01/03 13:03:24;;;;;;;18.77;4.00;;;12.10;99.90;;;;;;4990083;28;20038;-66
2022/01/03 13:06:09;;;;;;;21.80;4.75;;;12.40;99.90;;;;;;4991343;28;20133;-66
2022/01/03 13:08:38;;;;;;;30.38;4.63;;;11.90;99.90;;;;;;4987189;28;20165;-66
2022/01/03 13:11:08;;;;;;;21.88;3.42;;;11.90;99.90;;;;;;4989652;28;20097;-67
2022/01/03 13:13:35;;;;;;;22.98;4.13;;;11.70;99.90;;;;;;4986977;28;20091;-67